createdAt,value
2022-10-11T00:00:40.454Z,12.52
2022-10-11T00:01:27.307Z,9.00
2022-10-11T00:02:14.221Z,9.35
2022-10-11T00:03:01.158Z,8.00
2022-10-11T00:03:47.970Z,10.45
2022-10-11T00:04:34.840Z,9.35
2022-10-11T00:05:21.600Z,9.68
2022-10-11T00:06:09.595Z,9.95
2022-10-11T00:06:56.554Z,8.60
2022-10-11T00:07:43.472Z,13.75
2022-10-11T00:08:31.202Z,11.57
2022-10-11T00:09:17.922Z,11.65
2022-10-11T00:10:06.237Z,10.68
2022-10-11T00:10:58.319Z,9.93
2022-10-11T00:11:45.621Z,13.80
2022-10-11T00:12:32.883Z,9.75
2022-10-11T00:13:19.671Z,9.65
2022-10-11T00:14:06.872Z,7.75
2022-10-11T00:14:53.643Z,8.90
2022-10-11T00:15:41.181Z,8.07
2022-10-11T00:16:28.040Z,8.85
2022-10-11T00:17:14.956Z,11.27
2022-10-11T00:18:05.296Z,9.40
2022-10-11T00:19:38.941Z,8.77
2022-10-11T00:20:26.721Z,9.38
2022-10-11T00:21:14.742Z,9.05
2022-10-11T00:22:01.722Z,9.48
2022-10-11T00:22:49.621Z,9.88
2022-10-11T00:23:37.231Z,9.10
2022-10-11T00:24:24.061Z,10.00
2022-10-11T00:25:12.191Z,9.27
2022-10-11T00:26:03.696Z,11.52
2022-10-11T00:26:50.810Z,11.48
2022-10-11T00:27:38.131Z,9.48
2022-10-11T00:28:25.159Z,9.73
2022-10-11T00:29:12.948Z,10.32
2022-10-11T00:29:59.727Z,10.05
2022-10-11T00:30:46.543Z,10.77
2022-10-11T00:31:35.691Z,10.65
2022-10-11T00:32:23.181Z,9.55
2022-10-11T00:33:09.942Z,10.68
2022-10-11T00:33:56.840Z,9.18
2022-10-11T00:34:43.586Z,9.82
2022-10-11T00:35:30.425Z,11.93
2022-10-11T00:36:17.808Z,8.38
2022-10-11T00:37:04.577Z,9.50
2022-10-11T00:37:51.390Z,12.00
2022-10-11T00:38:38.163Z,11.05
2022-10-11T00:39:25.031Z,9.55
2022-10-11T00:40:15.921Z,9.32
2022-10-11T00:41:02.743Z,10.18
2022-10-11T00:41:49.701Z,8.82
2022-10-11T00:42:36.652Z,13.77
2022-10-11T00:43:26.424Z,9.45
2022-10-11T00:44:19.184Z,9.63
2022-10-11T00:45:27.730Z,10.07
2022-10-11T00:46:17.481Z,11.75
2022-10-11T00:47:08.161Z,11.23
2022-10-11T00:48:55.742Z,8.75
2022-10-11T00:49:43.140Z,8.07
2022-10-11T00:50:33.330Z,9.10
2022-10-11T00:51:28.941Z,10.50
2022-10-11T00:52:23.601Z,9.52
2022-10-11T00:53:11.640Z,20.30
2022-10-11T00:53:59.861Z,9.82
2022-10-11T00:54:48.341Z,11.45
2022-10-11T00:55:39.401Z,9.93
2022-10-11T00:56:33.480Z,8.70
2022-10-11T00:57:23.150Z,10.73
2022-10-11T00:58:11.210Z,12.13
2022-10-11T00:58:58.591Z,8.27
2022-10-11T00:59:49.161Z,8.80
2022-10-11T01:01:22.707Z,10.25
2022-10-11T01:02:10.433Z,8.95
2022-10-11T01:02:57.365Z,10.80
2022-10-11T01:03:44.539Z,9.18
2022-10-11T01:04:31.486Z,8.90
2022-10-11T01:05:29.146Z,9.70
2022-10-11T01:06:16.332Z,10.27
2022-10-11T01:07:03.541Z,8.77
2022-10-11T01:07:51.132Z,10.43
2022-10-11T01:08:39.001Z,9.45
2022-10-11T01:09:26.842Z,9.35
2022-10-11T01:10:14.060Z,10.90
2022-10-11T01:11:01.034Z,10.95
2022-10-11T01:11:48.420Z,8.48
2022-10-11T01:12:35.720Z,11.65
2022-10-11T01:13:56.323Z,9.45
2022-10-11T01:14:53.271Z,8.93
2022-10-11T01:15:51.265Z,9.93
2022-10-11T01:16:47.020Z,12.23
2022-10-11T01:17:51.832Z,12.05
2022-10-11T01:18:44.491Z,12.52
2022-10-11T01:20:00.332Z,14.20
2022-10-11T01:21:02.233Z,9.05
2022-10-11T01:21:58.061Z,9.68
2022-10-11T01:23:29.952Z,10.40
2022-10-11T01:24:22.722Z,11.32
2022-10-11T01:25:24.767Z,10.30
2022-10-11T01:26:20.622Z,9.35
2022-10-11T01:27:26.203Z,11.10
2022-10-11T01:28:37.460Z,9.82
2022-10-11T01:29:36.513Z,11.52
2022-10-11T01:30:32.361Z,9.98
2022-10-11T01:31:26.845Z,10.80
2022-10-11T01:32:30.761Z,10.90
2022-10-11T01:33:37.951Z,8.73
2022-10-11T01:34:40.943Z,11.75
2022-10-11T01:35:36.692Z,11.57
2022-10-11T01:37:05.278Z,10.10
2022-10-11T01:37:58.061Z,9.95
2022-10-11T01:38:49.721Z,9.15
2022-10-11T01:40:16.360Z,8.38
2022-10-11T01:41:10.462Z,9.45
2022-10-11T01:42:00.549Z,9.60
2022-10-11T01:42:47.821Z,11.07
2022-10-11T01:43:35.791Z,10.52
2022-10-11T01:44:25.052Z,9.63
2022-10-11T01:45:15.900Z,9.88
2022-10-11T01:46:03.798Z,12.02
2022-10-11T01:46:52.302Z,8.95
2022-10-11T01:47:39.310Z,13.70
2022-10-11T01:48:26.161Z,12.65
2022-10-11T01:49:12.960Z,12.00
2022-10-11T01:50:01.460Z,13.40
2022-10-11T01:50:50.941Z,9.68
2022-10-11T01:51:46.482Z,10.57
2022-10-11T01:52:36.321Z,11.25
2022-10-11T01:53:35.271Z,9.75
2022-10-11T01:54:56.946Z,9.00
2022-10-11T01:55:58.281Z,12.27
2022-10-11T01:57:24.074Z,12.52
2022-10-11T01:58:15.482Z,9.52
2022-10-11T01:59:15.551Z,9.00
2022-10-11T02:00:14.511Z,11.80
2022-10-11T02:01:31.240Z,10.40
2022-10-11T02:02:20.971Z,10.98
2022-10-11T02:03:27.720Z,11.12
2022-10-11T02:04:36.352Z,11.48
2022-10-11T02:05:44.331Z,10.68
2022-10-11T02:06:52.033Z,10.55
2022-10-11T02:07:47.922Z,9.98
2022-10-11T02:08:37.964Z,9.65
2022-10-11T02:09:26.563Z,11.20
2022-10-11T02:10:19.526Z,8.77
2022-10-11T02:11:29.534Z,12.63
2022-10-11T02:12:23.962Z,8.93
2022-10-11T02:13:23.712Z,11.30
2022-10-11T02:14:17.136Z,11.80
2022-10-11T02:15:08.401Z,11.12
2022-10-11T02:15:56.041Z,12.15
2022-10-11T02:17:01.522Z,9.82
2022-10-11T02:17:51.801Z,8.80
2022-10-11T02:18:42.831Z,8.85
2022-10-11T02:19:33.511Z,12.32
2022-10-11T02:21:11.331Z,8.77
2022-10-11T02:22:03.508Z,10.18
2022-10-11T02:22:52.022Z,9.63
2022-10-11T02:23:45.820Z,9.55
2022-10-11T02:24:35.001Z,9.32
2022-10-11T02:25:27.762Z,9.15
2022-10-11T02:26:14.990Z,12.40
2022-10-11T02:27:03.623Z,11.90
2022-10-11T02:27:52.371Z,10.77
2022-10-11T02:28:42.539Z,13.02
2022-10-11T02:29:31.481Z,10.43
2022-10-11T02:30:18.412Z,10.15
2022-10-11T02:31:07.104Z,10.45
2022-10-11T02:31:54.793Z,9.25
2022-10-11T02:32:44.570Z,11.02
2022-10-11T02:33:39.642Z,9.82
2022-10-11T02:34:43.735Z,10.50
2022-10-11T02:35:34.363Z,9.23
2022-10-11T02:37:33.291Z,9.20
2022-10-11T02:38:23.920Z,10.32
2022-10-11T02:40:18.541Z,11.93
2022-10-11T02:41:15.452Z,8.73
2022-10-11T02:42:05.620Z,9.32
2022-10-11T02:43:00.001Z,12.43
2022-10-11T02:44:00.279Z,12.88
2022-10-11T02:44:53.610Z,10.20
2022-10-11T02:46:17.740Z,12.25
2022-10-11T02:47:04.890Z,11.27
2022-10-11T02:47:51.803Z,15.30
2022-10-11T02:48:39.925Z,11.55
2022-10-11T02:49:28.373Z,11.15
2022-10-11T02:50:15.613Z,12.00
2022-10-11T02:51:03.611Z,11.12
2022-10-11T02:51:50.419Z,9.85
2022-10-11T02:52:37.200Z,10.23
2022-10-11T02:53:25.801Z,10.50
2022-10-11T02:54:12.669Z,11.70
2022-10-11T02:54:59.570Z,9.95
2022-10-11T02:55:47.069Z,9.23
2022-10-11T02:56:33.921Z,10.75
2022-10-11T02:57:20.691Z,9.02
2022-10-11T02:58:07.469Z,9.95
2022-10-11T02:58:54.239Z,11.18
2022-10-11T02:59:41.017Z,10.60
2022-10-11T03:00:28.121Z,10.88
2022-10-11T03:01:15.483Z,9.98
2022-10-11T03:02:02.524Z,12.98
2022-10-11T03:02:49.464Z,10.77
2022-10-11T03:03:36.269Z,11.63
2022-10-11T03:04:23.021Z,10.90
2022-10-11T03:05:10.004Z,10.88
2022-10-11T03:06:01.488Z,11.57
2022-10-11T03:06:48.581Z,10.55
2022-10-11T03:07:35.508Z,9.82
2022-10-11T03:08:22.261Z,10.20
2022-10-11T03:09:09.022Z,11.18
2022-10-11T03:09:55.801Z,11.23
2022-10-11T03:10:42.901Z,10.05
2022-10-11T03:11:29.770Z,11.18
2022-10-11T03:12:16.572Z,12.65
2022-10-11T03:13:03.563Z,12.82
2022-10-11T03:13:51.643Z,9.60
2022-10-11T03:14:38.442Z,12.50
2022-10-11T03:15:25.331Z,9.38
2022-10-11T03:16:12.371Z,9.38
2022-10-11T03:17:17.179Z,14.07
2022-10-11T03:18:07.499Z,9.40
2022-10-11T03:18:54.320Z,10.95
2022-10-11T03:19:41.221Z,11.55
2022-10-11T03:20:28.040Z,12.23
2022-10-11T03:21:14.930Z,11.25
2022-10-11T03:22:01.701Z,12.27
2022-10-11T03:22:48.602Z,9.90
2022-10-11T03:23:35.533Z,10.95
2022-10-11T03:24:22.454Z,10.20
2022-10-11T03:25:09.649Z,14.13
2022-10-11T03:25:56.580Z,11.55
2022-10-11T03:26:43.370Z,10.68
2022-10-11T03:27:30.152Z,13.07
2022-10-11T03:28:16.973Z,14.43
2022-10-11T03:29:03.838Z,9.65
2022-10-11T03:29:50.610Z,12.50
2022-10-11T03:30:37.409Z,10.80
2022-10-11T03:31:24.268Z,9.48
2022-10-11T03:32:11.032Z,12.82
2022-10-11T03:32:57.961Z,12.05
2022-10-11T03:33:45.103Z,10.93
2022-10-11T03:34:31.923Z,10.95
2022-10-11T03:35:18.900Z,12.50
2022-10-11T03:36:06.412Z,10.18
2022-10-11T03:36:53.512Z,11.32
2022-10-11T03:37:40.390Z,9.63
2022-10-11T03:38:27.139Z,12.57
2022-10-11T03:39:13.961Z,12.27
2022-10-11T03:40:00.771Z,9.77
2022-10-11T03:40:48.051Z,14.45
2022-10-11T03:41:34.911Z,12.65
2022-10-11T03:42:21.680Z,9.65
2022-10-11T03:43:08.661Z,12.52
2022-10-11T03:43:55.511Z,10.93
2022-10-11T03:44:42.341Z,12.52
2022-10-11T03:45:29.161Z,9.77
2022-10-11T03:46:16.042Z,11.18
2022-10-11T03:47:02.861Z,11.70
2022-10-11T03:47:49.692Z,10.27
2022-10-11T03:48:36.568Z,9.75
2022-10-11T03:49:23.771Z,14.25
2022-10-11T03:50:10.633Z,11.30
2022-10-11T03:50:57.410Z,13.75
2022-10-11T03:51:44.242Z,14.75
2022-10-11T03:52:31.030Z,12.45
2022-10-11T03:53:17.912Z,16.52
2022-10-11T03:54:04.729Z,14.05
2022-10-11T03:54:51.501Z,16.35
2022-10-11T03:55:40.417Z,16.92
2022-10-11T03:56:27.242Z,13.93
2022-10-11T03:57:14.312Z,12.98
2022-10-11T03:58:01.133Z,12.10
2022-10-11T03:58:47.921Z,11.95
2022-10-11T03:59:34.726Z,12.13
2022-10-11T04:00:21.581Z,11.95
2022-10-11T04:01:09.091Z,10.88
2022-10-11T04:01:55.976Z,10.88
2022-10-11T04:02:42.942Z,13.13
2022-10-11T04:03:30.123Z,11.02
2022-10-11T04:04:16.912Z,14.77
2022-10-11T04:05:06.111Z,12.63
2022-10-11T04:05:52.971Z,12.37
2022-10-11T04:06:39.771Z,12.07
2022-10-11T04:07:26.691Z,10.48
2022-10-11T04:08:13.608Z,11.85
2022-10-11T04:09:00.543Z,11.43
2022-10-11T04:09:47.341Z,10.90
2022-10-11T04:10:34.234Z,12.13
2022-10-11T04:11:21.350Z,14.10
2022-10-11T04:12:08.571Z,12.37
2022-10-11T04:12:55.450Z,13.90
2022-10-11T04:13:42.195Z,15.52
2022-10-11T04:14:29.012Z,11.57
2022-10-11T04:15:16.745Z,12.98
2022-10-11T04:16:04.054Z,14.73
2022-10-11T04:16:51.040Z,12.43
2022-10-11T04:17:37.871Z,12.48
2022-10-11T04:18:24.777Z,10.50
2022-10-11T04:19:12.160Z,11.82
2022-10-11T04:20:01.359Z,11.50
2022-10-11T04:21:47.271Z,10.20
2022-10-11T04:23:05.961Z,12.07
2022-10-11T04:24:33.518Z,12.43
2022-10-11T04:25:35.661Z,13.82
2022-10-11T04:26:49.690Z,11.52
2022-10-11T04:27:40.412Z,13.95
2022-10-11T04:28:56.950Z,15.57
2022-10-11T04:29:43.777Z,11.23
2022-10-11T04:30:30.882Z,11.07
2022-10-11T04:31:17.664Z,11.48
2022-10-11T04:32:04.560Z,11.77
2022-10-11T04:32:51.491Z,12.48
2022-10-11T04:33:38.252Z,12.20
2022-10-11T04:40:54.331Z,12.25
2022-10-11T04:43:04.821Z,11.07
2022-10-11T04:54:59.583Z,13.38
2022-10-11T04:55:59.032Z,12.07
2022-10-11T04:56:45.870Z,12.43
2022-10-11T04:57:32.683Z,11.20
2022-10-11T04:58:19.499Z,11.55
2022-10-11T04:59:06.330Z,12.60
2022-10-11T04:59:53.102Z,10.35
2022-10-11T05:00:39.881Z,12.00
2022-10-11T05:01:48.931Z,11.88
2022-10-11T05:02:35.716Z,11.20
2022-10-11T05:03:22.791Z,12.02
2022-10-11T05:04:09.562Z,10.90
2022-10-11T05:04:56.549Z,11.23
2022-10-11T05:05:47.962Z,11.85
2022-10-11T05:14:03.661Z,11.85
2022-10-11T05:14:50.481Z,13.60
2022-10-11T05:15:37.290Z,14.80
2022-10-11T05:16:24.228Z,11.82
2022-10-11T05:25:47.865Z,11.23
2022-10-11T05:26:44.540Z,10.55
2022-10-11T05:32:00.905Z,12.68
2022-10-11T05:32:49.581Z,14.18
2022-10-11T05:33:37.622Z,13.60
2022-10-11T05:34:25.790Z,16.90
2022-10-11T05:35:13.340Z,16.02
2022-10-11T05:36:00.861Z,14.18
2022-10-11T05:36:48.429Z,11.98
2022-10-11T05:37:36.072Z,12.60
2022-10-11T05:38:24.038Z,13.65
2022-10-11T05:39:12.516Z,13.27
2022-10-11T05:40:00.353Z,12.02
2022-10-11T05:40:47.242Z,11.60
2022-10-11T05:41:34.262Z,13.35
2022-10-11T05:42:25.571Z,12.45
2022-10-11T05:43:13.853Z,16.17
2022-10-11T05:44:01.152Z,10.60
2022-10-11T05:45:57.625Z,12.45
2022-10-11T05:46:51.121Z,11.35
2022-10-11T05:47:38.713Z,14.27
2022-10-11T05:48:32.061Z,12.52
2022-10-11T05:49:19.177Z,13.27
2022-10-11T05:50:46.141Z,10.80
2022-10-11T05:51:33.200Z,12.35
2022-10-11T05:52:21.719Z,10.63
2022-10-11T05:53:08.539Z,11.60
2022-10-11T05:53:55.301Z,11.15
2022-10-11T05:54:42.124Z,16.60
2022-10-11T05:55:29.002Z,11.48
2022-10-11T05:56:21.489Z,13.62
2022-10-11T05:57:08.237Z,10.63
2022-10-11T05:57:56.251Z,12.93
2022-10-11T05:58:43.042Z,11.30
2022-10-11T05:59:29.984Z,13.13
2022-10-11T06:00:17.025Z,11.88
2022-10-11T06:01:03.897Z,10.82
2022-10-11T06:01:51.005Z,11.88
2022-10-11T06:02:37.758Z,11.68
2022-10-11T06:03:24.856Z,11.15
2022-10-11T06:04:12.021Z,11.55
2022-10-11T06:04:58.744Z,13.30
2022-10-11T06:05:45.900Z,12.10
2022-10-11T06:06:32.591Z,11.75
2022-10-11T06:07:19.313Z,11.98
2022-10-11T06:08:08.836Z,12.32
2022-10-11T06:08:55.749Z,10.85
2022-10-11T06:09:42.642Z,10.57
2022-10-11T06:10:29.928Z,14.00
2022-10-11T06:11:21.382Z,11.95
2022-10-11T06:12:08.240Z,13.90
2022-10-11T06:12:55.256Z,11.20
2022-10-11T06:13:42.411Z,10.85
2022-10-11T06:14:29.641Z,11.05
2022-10-11T06:15:16.800Z,12.65
2022-10-11T06:16:07.786Z,10.80
2022-10-11T06:16:54.851Z,10.55
2022-10-11T06:17:42.031Z,11.38
2022-10-11T06:18:29.021Z,10.75
2022-10-11T06:19:15.901Z,10.85
2022-10-11T06:20:04.090Z,13.88
2022-10-11T06:20:50.994Z,11.07
2022-10-11T06:21:37.850Z,16.50
2022-10-11T06:22:24.783Z,12.63
2022-10-11T06:23:12.382Z,10.65
2022-10-11T06:24:02.091Z,11.02
2022-10-11T06:24:49.741Z,12.57
2022-10-11T06:25:36.600Z,12.75
2022-10-11T06:26:23.700Z,12.37
2022-10-11T06:27:10.715Z,11.82
2022-10-11T06:27:57.560Z,11.55
2022-10-11T06:28:44.563Z,15.23
2022-10-11T06:29:31.621Z,12.98
2022-10-11T06:30:18.551Z,13.52
2022-10-11T06:31:06.352Z,12.88
2022-10-11T06:31:53.281Z,11.10
2022-10-11T06:32:40.131Z,10.88
2022-10-11T06:33:27.470Z,14.23
2022-10-11T06:34:14.343Z,10.90
2022-10-11T06:35:03.805Z,12.73
2022-10-11T06:35:57.251Z,10.48
2022-10-11T06:36:44.132Z,13.52
2022-10-11T06:37:30.811Z,11.15
2022-10-11T06:38:17.742Z,14.63
2022-10-11T06:39:05.061Z,13.65
2022-10-11T06:39:51.860Z,13.82
2022-10-11T06:40:38.800Z,14.15
2022-10-11T06:41:28.029Z,11.48
2022-10-11T06:42:14.906Z,10.20
2022-10-11T06:43:01.803Z,12.60
2022-10-11T06:43:51.612Z,13.27
2022-10-11T06:44:39.538Z,13.20
2022-10-11T06:45:26.497Z,11.35
2022-10-11T06:46:13.391Z,15.48
2022-10-11T06:47:00.320Z,11.57
2022-10-11T06:47:47.101Z,11.30
2022-10-11T06:48:34.102Z,11.00
2022-10-11T06:49:23.432Z,10.98
2022-10-11T06:50:10.451Z,11.65
2022-10-11T06:51:00.890Z,11.15
2022-10-11T06:52:35.374Z,10.15
2022-10-11T06:53:22.191Z,14.57
2022-10-11T06:54:10.123Z,16.20
2022-10-11T06:54:57.759Z,20.70
2022-10-11T06:55:44.680Z,19.90
2022-10-11T06:56:32.161Z,19.77
2022-10-11T06:57:19.117Z,18.45
2022-10-11T06:58:05.935Z,17.87
2022-10-11T06:58:54.011Z,19.05
2022-10-11T06:59:40.801Z,16.92
2022-10-11T07:00:28.161Z,16.40
2022-10-11T07:01:20.715Z,15.10
2022-10-11T07:02:08.901Z,22.00
2022-10-11T07:02:55.831Z,14.45
2022-10-11T07:03:42.941Z,19.33
2022-10-11T07:04:29.988Z,17.48
2022-10-11T07:05:17.811Z,22.00
2022-10-11T07:06:07.313Z,17.02
2022-10-11T07:06:54.511Z,18.45
2022-10-11T07:07:41.311Z,18.62
2022-10-11T07:08:28.645Z,19.45
2022-10-11T07:09:15.416Z,18.00
2022-10-11T07:10:02.241Z,18.37
2022-10-11T07:10:49.097Z,21.62
2022-10-11T07:11:36.414Z,22.00
2022-10-11T07:12:23.305Z,17.25
2022-10-11T07:13:14.831Z,18.37
2022-10-11T07:14:08.138Z,18.87
2022-10-11T07:14:55.072Z,19.73
2022-10-11T07:15:41.981Z,17.83
2022-10-11T07:16:29.216Z,16.98
2022-10-11T07:17:16.140Z,22.98
2022-10-11T07:18:03.091Z,18.15
2022-10-11T07:18:58.775Z,16.08
2022-10-11T07:19:47.524Z,16.12
2022-10-11T07:20:34.380Z,17.02
2022-10-11T07:21:21.216Z,16.40
2022-10-11T07:22:08.139Z,16.85
2022-10-11T07:22:55.187Z,14.30
2022-10-11T07:23:42.531Z,13.70
2022-10-11T07:24:29.696Z,19.73
2022-10-11T07:25:16.570Z,14.93
2022-10-11T07:26:04.050Z,14.80
2022-10-11T07:26:51.363Z,16.02
2022-10-11T07:27:38.582Z,17.50
2022-10-11T07:28:26.061Z,14.50
2022-10-11T07:29:13.251Z,16.75
2022-10-11T07:30:00.073Z,14.32
2022-10-11T07:30:47.201Z,14.82
2022-10-11T07:31:34.031Z,16.58
2022-10-11T07:32:20.998Z,12.70
2022-10-11T07:33:07.831Z,12.50
2022-10-11T07:33:54.783Z,13.65
2022-10-11T07:34:41.635Z,17.77
2022-10-11T07:35:28.561Z,14.38
2022-10-11T07:36:16.301Z,13.25
2022-10-11T07:37:03.191Z,13.50
2022-10-11T07:37:50.383Z,15.27
2022-10-11T07:38:41.092Z,15.00
2022-10-11T07:39:28.111Z,12.25
2022-10-11T07:40:15.190Z,13.52
2022-10-11T07:41:06.324Z,13.45
2022-10-11T07:41:53.199Z,12.73
2022-10-11T07:42:40.060Z,12.02
2022-10-11T07:43:26.966Z,13.02
2022-10-11T07:44:14.810Z,13.80
2022-10-11T07:45:01.675Z,12.98
2022-10-11T07:45:53.232Z,13.13
2022-10-11T07:46:40.063Z,23.12
2022-10-11T07:47:27.002Z,14.90
2022-10-11T07:48:13.923Z,13.23
2022-10-11T07:49:00.831Z,15.57
2022-10-11T07:49:47.660Z,13.30
2022-10-11T07:50:35.591Z,14.40
2022-10-11T07:51:24.209Z,12.32
2022-10-11T07:52:11.061Z,16.00
2022-10-11T07:52:58.779Z,27.33
2022-10-11T07:53:48.604Z,32.25
2022-10-11T07:54:35.503Z,22.67
2022-10-11T07:55:22.945Z,25.60
2022-10-11T07:56:12.812Z,18.80
2022-10-11T07:56:59.860Z,16.67
2022-10-11T07:57:47.022Z,18.62
2022-10-11T07:58:33.892Z,15.73
2022-10-11T07:59:20.725Z,17.50
2022-10-11T08:00:08.561Z,15.95
2022-10-11T08:00:55.687Z,20.98
2022-10-11T08:01:42.760Z,13.52
2022-10-11T08:02:29.662Z,16.73
2022-10-11T08:03:17.201Z,13.62
2022-10-11T08:04:04.314Z,15.23
2022-10-11T08:04:51.150Z,20.37
2022-10-11T08:05:39.260Z,15.38
2022-10-11T08:06:31.965Z,14.65
2022-10-11T08:07:18.903Z,16.98
2022-10-11T08:08:05.891Z,19.12
2022-10-11T08:08:52.901Z,24.23
2022-10-11T08:09:39.921Z,18.50
2022-10-11T08:10:27.891Z,18.50
2022-10-11T08:11:32.321Z,16.48
2022-10-11T08:12:19.226Z,18.25
2022-10-11T08:13:06.251Z,18.02
2022-10-11T08:13:53.372Z,18.33
2022-10-11T08:14:41.801Z,23.30
2022-10-11T08:15:29.920Z,18.23
2022-10-11T08:16:17.942Z,21.67
2022-10-11T08:17:05.213Z,17.50
2022-10-11T08:17:52.070Z,22.70
2022-10-11T08:18:39.330Z,20.80
2022-10-11T08:19:26.282Z,21.12
2022-10-11T08:20:13.631Z,19.30
2022-10-11T08:21:00.561Z,14.60
2022-10-11T08:21:47.732Z,16.05
2022-10-11T08:22:34.801Z,14.07
2022-10-11T08:23:21.731Z,14.40
2022-10-11T08:24:09.010Z,13.98
2022-10-11T08:24:55.900Z,18.73
2022-10-11T08:25:45.399Z,13.88
2022-10-11T08:26:33.050Z,18.45
2022-10-11T08:27:19.961Z,16.52
2022-10-11T08:28:07.548Z,20.77
2022-10-11T08:28:54.773Z,18.58
2022-10-11T08:29:41.875Z,14.55
2022-10-11T08:30:28.773Z,16.73
2022-10-11T08:31:16.687Z,21.80
2022-10-11T08:32:03.668Z,14.87
2022-10-11T08:32:50.810Z,14.65
2022-10-11T08:33:37.681Z,14.48
2022-10-11T08:34:25.011Z,13.70
2022-10-11T08:35:11.941Z,16.00
2022-10-11T08:35:59.250Z,14.32
2022-10-11T08:36:46.421Z,13.18
2022-10-11T08:37:33.490Z,12.90
2022-10-11T08:38:20.621Z,13.93
2022-10-11T08:39:07.971Z,15.73
2022-10-11T08:39:55.011Z,15.20
2022-10-11T08:40:48.223Z,14.07
2022-10-11T08:41:44.051Z,15.88
2022-10-11T08:42:33.792Z,14.27
2022-10-11T08:43:38.740Z,14.35
2022-10-11T08:45:09.515Z,18.37
2022-10-11T08:45:53.814Z,21.05
2022-10-11T08:46:44.264Z,19.40
2022-10-11T08:47:36.604Z,21.55
2022-10-11T08:48:37.431Z,21.83
2022-10-11T08:49:27.639Z,17.90
2022-10-11T08:50:22.700Z,16.42
2022-10-11T08:51:25.950Z,20.02
2022-10-11T08:52:28.576Z,18.67
2022-10-11T08:53:33.210Z,18.02
2022-10-11T08:54:46.010Z,17.12
2022-10-11T08:55:53.509Z,21.17
2022-10-11T08:56:42.081Z,17.17
2022-10-11T08:57:31.595Z,21.98
2022-10-11T08:58:23.008Z,15.38
2022-10-11T08:59:12.741Z,18.25
2022-10-11T09:00:04.852Z,18.42
2022-10-11T09:00:58.220Z,16.98
2022-10-11T09:01:50.674Z,20.58
2022-10-11T09:03:07.649Z,25.40
2022-10-11T09:03:55.914Z,23.33
2022-10-11T09:04:42.855Z,24.40
2022-10-11T09:05:36.351Z,22.30
2022-10-11T09:06:45.420Z,19.67
2022-10-11T09:07:47.512Z,19.62
2022-10-11T09:08:52.880Z,25.02
2022-10-11T09:09:49.553Z,21.70
2022-10-11T09:10:36.720Z,27.85
2022-10-11T09:11:35.821Z,26.23
2022-10-11T09:12:50.270Z,18.92
2022-10-11T09:13:59.090Z,23.95
2022-10-11T09:15:12.710Z,21.08
2022-10-11T09:16:11.241Z,19.55
2022-10-11T09:17:13.893Z,19.55
2022-10-11T09:18:16.421Z,22.35
2022-10-11T09:19:03.260Z,22.17
2022-10-11T09:20:14.700Z,27.98
2022-10-11T09:21:45.771Z,21.55
2022-10-11T09:22:32.530Z,22.80
2022-10-11T09:23:36.161Z,21.60
2022-10-11T09:24:32.100Z,19.10
2022-10-11T09:25:22.022Z,19.02
2022-10-11T09:26:29.241Z,18.30
2022-10-11T09:27:33.053Z,22.55
2022-10-11T09:28:57.318Z,21.67
2022-10-11T09:30:07.074Z,18.42
2022-10-11T09:30:56.082Z,20.35
2022-10-11T09:31:48.153Z,18.92
2022-10-11T09:32:40.680Z,22.70
2022-10-11T09:33:45.890Z,21.10
2022-10-11T09:34:34.110Z,19.35
2022-10-11T09:35:22.922Z,22.23
2022-10-11T09:36:18.951Z,20.80
2022-10-11T09:37:32.988Z,18.10
2022-10-11T09:38:40.261Z,23.52
2022-10-11T09:39:33.033Z,21.65
2022-10-11T09:40:37.811Z,18.87
2022-10-11T09:41:59.369Z,21.70
2022-10-11T09:42:46.270Z,18.70
2022-10-11T09:43:33.380Z,22.65
2022-10-11T09:44:23.621Z,23.48
2022-10-11T09:45:18.048Z,23.12
2022-10-11T09:46:21.463Z,22.85
2022-10-11T09:47:15.063Z,22.55
2022-10-11T09:48:03.171Z,23.75
2022-10-11T09:48:51.301Z,22.67
2022-10-11T09:49:41.548Z,22.35
2022-10-11T09:50:30.910Z,23.10
2022-10-11T09:51:22.186Z,17.40
2022-10-11T09:52:16.892Z,21.75
2022-10-11T09:53:05.351Z,17.75
2022-10-11T09:53:56.765Z,19.67
2022-10-11T09:54:46.143Z,22.42
2022-10-11T09:55:40.990Z,19.75
2022-10-11T09:56:30.160Z,19.55
2022-10-11T09:57:34.501Z,21.10
2022-10-11T09:58:32.721Z,24.20
2022-10-11T09:59:36.311Z,20.55
2022-10-11T10:00:28.629Z,29.70
2022-10-11T10:01:26.474Z,22.58
2022-10-11T10:02:16.030Z,25.30
2022-10-11T10:03:04.724Z,22.10
2022-10-11T10:04:08.141Z,21.05
2022-10-11T10:05:15.251Z,18.58
2022-10-11T10:06:06.591Z,22.35
2022-10-11T10:07:10.591Z,23.15
2022-10-11T10:08:04.774Z,18.98
2022-10-11T10:08:52.595Z,20.40
2022-10-11T10:09:39.446Z,23.40
2022-10-11T10:10:43.942Z,23.40
2022-10-11T10:11:37.176Z,22.52
2022-10-11T10:12:30.811Z,22.85
2022-10-11T10:13:28.082Z,23.50
2022-10-11T10:14:23.213Z,18.83
2022-10-11T10:15:19.840Z,28.10
2022-10-11T10:16:11.940Z,23.08
2022-10-11T10:17:08.842Z,21.10
2022-10-11T10:17:56.025Z,20.27
2022-10-11T10:18:48.691Z,24.20
2022-10-11T10:19:49.155Z,23.73
2022-10-11T10:20:36.741Z,21.12
2022-10-11T10:21:35.350Z,25.88
2022-10-11T10:22:28.333Z,21.05
2022-10-11T10:23:27.261Z,19.90
2022-10-11T10:24:29.311Z,19.30
2022-10-11T10:25:27.759Z,21.92
2022-10-11T10:26:16.582Z,16.73
2022-10-11T10:27:24.621Z,19.12
2022-10-11T10:28:22.761Z,18.12
2022-10-11T10:29:09.825Z,19.87
2022-10-11T10:30:16.451Z,18.33
2022-10-11T10:31:03.670Z,17.35
2022-10-11T10:32:14.351Z,22.30
2022-10-11T10:33:05.181Z,15.95
2022-10-11T10:33:53.471Z,22.20
2022-10-11T10:34:51.920Z,18.27
2022-10-11T10:35:38.902Z,20.75
2022-10-11T10:36:36.180Z,17.40
2022-10-11T10:37:46.465Z,22.33
2022-10-11T10:38:37.640Z,19.52
2022-10-11T10:39:36.905Z,15.65
2022-10-11T10:40:30.523Z,20.23
2022-10-11T10:41:18.894Z,17.10
2022-10-11T10:42:13.597Z,16.45
2022-10-11T10:43:00.397Z,19.75
2022-10-11T10:43:53.951Z,18.98
2022-10-11T10:44:40.819Z,20.52
2022-10-11T10:45:44.821Z,17.80
2022-10-11T10:46:54.062Z,20.42
2022-10-11T10:47:58.689Z,18.15
2022-10-11T10:50:53.024Z,20.73
2022-10-11T10:51:39.748Z,29.58
2022-10-11T10:52:48.114Z,18.45
2022-10-11T10:54:06.972Z,18.80
2022-10-11T10:55:00.740Z,17.45
2022-10-11T10:56:09.464Z,20.77
2022-10-11T10:57:02.950Z,22.58
2022-10-11T10:58:18.872Z,23.27
2022-10-11T10:59:50.609Z,18.95
2022-10-11T11:00:42.852Z,23.45
2022-10-11T11:01:32.578Z,21.45
2022-10-11T11:02:40.172Z,28.35
2022-10-11T11:03:53.984Z,24.60
2022-10-11T11:04:45.045Z,19.98
2022-10-11T11:05:40.968Z,20.92
2022-10-11T11:06:51.275Z,22.33
2022-10-11T11:08:16.106Z,23.38
2022-10-11T11:09:38.181Z,17.90
2022-10-11T11:10:37.285Z,18.35
2022-10-11T11:11:30.251Z,19.67
2022-10-11T11:12:38.480Z,20.73
2022-10-11T11:13:42.868Z,23.50
2022-10-11T11:14:44.625Z,21.37
2022-10-11T11:16:10.291Z,19.35
2022-10-11T11:17:34.072Z,21.52
2022-10-11T11:18:28.862Z,29.10
2022-10-11T11:19:33.971Z,28.12
2022-10-11T11:20:21.531Z,23.08
2022-10-11T11:21:23.090Z,24.20
2022-10-11T11:22:32.932Z,23.00
2022-10-11T11:23:36.863Z,21.73
2022-10-11T11:24:36.471Z,20.95
2022-10-11T11:25:26.340Z,20.12
2022-10-11T11:26:26.911Z,22.40
2022-10-11T11:27:25.703Z,20.00
2022-10-11T11:28:38.917Z,21.80
2022-10-11T11:29:44.580Z,22.90
2022-10-11T11:30:41.571Z,22.15
2022-10-11T11:31:31.392Z,20.10
2022-10-11T11:32:30.443Z,21.17
2022-10-11T11:33:17.270Z,26.40
2022-10-11T11:34:23.911Z,24.52
2022-10-11T11:35:17.943Z,20.92
2022-10-11T11:36:19.103Z,21.37
2022-10-11T11:37:11.123Z,24.33
2022-10-11T11:38:06.371Z,20.17
2022-10-11T11:39:00.196Z,20.27
2022-10-11T11:39:57.580Z,21.92
2022-10-11T11:40:47.611Z,22.70
2022-10-11T11:41:45.530Z,18.40
2022-10-11T11:42:34.917Z,24.40
2022-10-11T11:43:28.691Z,19.83
2022-10-11T11:44:27.486Z,19.55
2022-10-11T11:45:22.820Z,20.30
2022-10-11T11:46:15.888Z,20.60
2022-10-11T11:47:17.949Z,25.52
2022-10-11T11:48:19.120Z,20.83
2022-10-11T11:49:13.900Z,21.83
2022-10-11T11:50:15.958Z,26.75
2022-10-11T11:51:14.427Z,20.42
2022-10-11T11:52:02.976Z,23.25
2022-10-11T11:52:59.451Z,19.90
2022-10-11T11:53:52.298Z,20.60
2022-10-11T11:54:52.190Z,21.70
2022-10-11T11:55:45.863Z,18.87
2022-10-11T11:56:47.837Z,22.00
2022-10-11T11:57:47.102Z,16.98
2022-10-11T11:58:37.077Z,21.40
2022-10-11T11:59:33.991Z,22.37
2022-10-11T12:00:23.235Z,19.95
2022-10-11T12:01:26.454Z,21.08
2022-10-11T12:02:22.738Z,19.35
2022-10-11T12:03:21.220Z,18.40